sensor_id;sensor_type;location;lat;lon;timestamp;pressure;altitude;pressure_sealevel;temperature;humidity
62617;BME280;62539;51.190;6.808;2023-04-28T00:00:49;101028.50;;;21.21;45.77
62617;BME280;62539;51.190;6.808;2023-04-28T00:03:15;101023.28;;;21.19;45.99
62617;BME280;62539;51.190;6.808;2023-04-28T00:05:41;101023.34;;;21.18;45.80
62617;BME280;62539;51.190;6.808;2023-04-28T00:08:06;101013.78;;;21.15;45.80
62617;BME280;62539;51.190;6.808;2023-04-28T00:10:32;101011.19;;;21.13;45.94
62617;BME280;62539;51.190;6.808;2023-04-28T00:12:58;101003.38;;;21.12;46.19
62617;BME280;62539;51.190;6.808;2023-04-28T00:15:23;100999.06;;;21.09;46.15
62617;BME280;62539;51.190;6.808;2023-04-28T00:17:49;100999.06;;;21.09;46.17
62617;BME280;62539;51.190;6.808;2023-04-28T00:20:14;100990.34;;;21.07;46.07
62617;BME280;62539;51.190;6.808;2023-04-28T00:22:40;100993.91;;;21.06;46.36
62617;BME280;62539;51.190;6.808;2023-04-28T00:25:06;100985.22;;;21.04;46.38
62617;BME280;62539;51.190;6.808;2023-04-28T00:27:32;100986.13;;;21.03;46.03
62617;BME280;62539;51.190;6.808;2023-04-28T00:29:59;100986.22;;;21.02;46.03
62617;BME280;62539;51.190;6.808;2023-04-28T00:32:24;100980.97;;;21.00;46.06
62617;BME280;62539;51.190;6.808;2023-04-28T00:34:50;100977.56;;;20.98;46.24
62617;BME280;62539;51.190;6.808;2023-04-28T00:37:15;100975.84;;;20.97;46.19
62617;BME280;62539;51.190;6.808;2023-04-28T00:39:41;100980.31;;;20.95;46.22
62617;BME280;62539;51.190;6.808;2023-04-28T00:42:11;100976.88;;;20.93;46.26
62617;BME280;62539;51.190;6.808;2023-04-28T00:44:39;100976.88;;;20.93;46.21
62617;BME280;62539;51.190;6.808;2023-04-28T00:47:07;100969.09;;;20.90;46.35
62617;BME280;62539;51.190;6.808;2023-04-28T00:49:34;100975.28;;;20.89;46.47
62617;BME280;62539;51.190;6.808;2023-04-28T00:52:03;100967.47;;;20.87;46.55
62617;BME280;62539;51.190;6.808;2023-04-28T00:54:32;100968.31;;;20.88;46.39
62617;BME280;62539;51.190;6.808;2023-04-28T00:56:58;100962.31;;;20.84;46.44
62617;BME280;62539;51.190;6.808;2023-04-28T00:59:28;100953.63;;;20.82;46.62
62617;BME280;62539;51.190;6.808;2023-04-28T01:01:54;100965.00;;;20.82;46.64
62617;BME280;62539;51.190;6.808;2023-04-28T01:04:20;100948.38;;;20.80;46.59
62617;BME280;62539;51.190;6.808;2023-04-28T01:06:46;100962.50;;;20.79;46.54
62617;BME280;62539;51.190;6.808;2023-04-28T01:09:12;100962.56;;;20.78;46.71
62617;BME280;62539;51.190;6.808;2023-04-28T01:11:38;100953.81;;;20.76;46.57
62617;BME280;62539;51.190;6.808;2023-04-28T01:14:03;100960.88;;;20.75;46.74
62617;BME280;62539;51.190;6.808;2023-04-28T01:16:28;100956.50;;;20.74;46.72
62617;BME280;62539;51.190;6.808;2023-04-28T01:18:56;100949.53;;;20.73;46.86
62617;BME280;62539;51.190;6.808;2023-04-28T01:21:32;100952.25;;;20.71;46.69
62617;BME280;62539;51.190;6.808;2023-04-28T01:23:59;100954.91;;;20.70;46.84
62617;BME280;62539;51.190;6.808;2023-04-28T01:26:25;100959.34;;;20.69;46.88
62617;BME280;62539;51.190;6.808;2023-04-28T01:28:50;100952.38;;;20.68;47.04
62617;BME280;62539;51.190;6.808;2023-04-28T01:31:16;100955.03;;;20.67;47.07
62617;BME280;62539;51.190;6.808;2023-04-28T01:33:41;100955.97;;;20.66;46.96
62617;BME280;62539;51.190;6.808;2023-04-28T01:36:07;100962.16;;;20.65;46.98
62617;BME280;62539;51.190;6.808;2023-04-28T01:38:33;100953.44;;;20.63;47.00
62617;BME280;62539;51.190;6.808;2023-04-28T01:40:58;100953.44;;;20.63;47.11
62617;BME280;62539;51.190;6.808;2023-04-28T01:43:24;100951.75;;;20.62;47.10
62617;BME280;62539;51.190;6.808;2023-04-28T01:45:50;100946.47;;;20.62;47.11
62617;BME280;62539;51.190;6.808;2023-04-28T01:48:15;100943.03;;;20.60;47.32
62617;BME280;62539;51.190;6.808;2023-04-28T01:50:41;100944.03;;;20.57;47.35
62617;BME280;62539;51.190;6.808;2023-04-28T01:53:07;100953.69;;;20.56;47.45
62617;BME280;62539;51.190;6.808;2023-04-28T01:55:32;100944.94;;;20.56;47.43
62617;BME280;62539;51.190;6.808;2023-04-28T01:57:57;100937.09;;;20.54;47.32
62617;BME280;62539;51.190;6.808;2023-04-28T02:00:23;100931.03;;;20.52;47.29
62617;BME280;62539;51.190;6.808;2023-04-28T02:02:48;100936.28;;;20.52;47.22
62617;BME280;62539;51.190;6.808;2023-04-28T02:05:14;100926.66;;;20.51;47.40
62617;BME280;62539;51.190;6.808;2023-04-28T02:07:39;100933.75;;;20.51;47.60
62617;BME280;62539;51.190;6.808;2023-04-28T02:10:06;100931.16;;;20.49;47.37
62617;BME280;62539;51.190;6.808;2023-04-28T02:12:32;100925.97;;;20.48;47.52
62617;BME280;62539;51.190;6.808;2023-04-28T02:14:58;100927.72;;;20.47;47.41
62617;BME280;62539;51.190;6.808;2023-04-28T02:17:23;100925.16;;;20.46;47.51
62617;BME280;62539;51.190;6.808;2023-04-28T02:19:54;100914.66;;;20.44;47.54
62617;BME280;62539;51.190;6.808;2023-04-28T02:22:21;100915.59;;;20.43;47.62
62617;BME280;62539;51.190;6.808;2023-04-28T02:24:46;100915.59;;;20.43;47.66
62617;BME280;62539;51.190;6.808;2023-04-28T02:27:12;100908.59;;;20.42;47.46
62617;BME280;62539;51.190;6.808;2023-04-28T02:29:37;100917.44;;;20.41;47.56
62617;BME280;62539;51.190;6.808;2023-04-28T02:32:03;100920.97;;;20.40;47.49
62617;BME280;62539;51.190;6.808;2023-04-28T02:34:28;100928.09;;;20.38;47.24
62617;BME280;62539;51.190;6.808;2023-04-28T02:36:54;100933.34;;;20.38;47.32
62617;BME280;62539;51.190;6.808;2023-04-28T02:39:19;100924.66;;;20.36;47.18
62617;BME280;62539;51.190;6.808;2023-04-28T02:41:53;100924.66;;;20.36;47.44
62617;BME280;62539;51.190;6.808;2023-04-28T02:44:19;100928.19;;;20.35;47.33
62617;BME280;62539;51.190;6.808;2023-04-28T02:46:45;100920.38;;;20.33;47.42
62617;BME280;62539;51.190;6.808;2023-04-28T02:49:10;100918.66;;;20.32;47.50
62617;BME280;62539;51.190;6.808;2023-04-28T02:51:36;100916.06;;;20.31;47.35
62617;BME280;62539;51.190;6.808;2023-04-28T02:54:01;100912.59;;;20.30;47.20
62617;BME280;62539;51.190;6.808;2023-04-28T02:56:27;100908.25;;;20.29;47.26
62617;BME280;62539;51.190;6.808;2023-04-28T02:58:54;100906.56;;;20.26;47.56
62617;BME280;62539;51.190;6.808;2023-04-28T03:01:19;100909.22;;;20.26;47.55
62617;BME280;62539;51.190;6.808;2023-04-28T03:03:45;100914.47;;;20.26;47.55
62617;BME280;62539;51.190;6.808;2023-04-28T03:06:10;100909.34;;;20.23;47.38
62617;BME280;62539;51.190;6.808;2023-04-28T03:08:36;100914.59;;;20.23;47.52
62617;BME280;62539;51.190;6.808;2023-04-28T03:11:01;100899.72;;;20.22;47.53
62617;BME280;62539;51.190;6.808;2023-04-28T03:13:27;100898.00;;;20.21;47.45
62617;BME280;62539;51.190;6.808;2023-04-28T03:15:54;100889.25;;;20.21;47.62
62617;BME280;62539;51.190;6.808;2023-04-28T03:18:20;100881.41;;;20.19;47.53
62617;BME280;62539;51.190;6.808;2023-04-28T03:20:46;100886.66;;;20.19;47.56
62617;BME280;62539;51.190;6.808;2023-04-28T03:23:12;100887.59;;;20.18;47.64
62617;BME280;62539;51.190;6.808;2023-04-28T03:25:38;100893.72;;;20.19;47.70
62617;BME280;62539;51.190;6.808;2023-04-28T03:28:03;100875.34;;;20.17;47.71
62617;BME280;62539;51.190;6.808;2023-04-28T03:30:29;100885.06;;;20.15;47.81
62617;BME280;62539;51.190;6.808;2023-04-28T03:32:54;100880.69;;;20.16;47.93
62617;BME280;62539;51.190;6.808;2023-04-28T03:35:20;100874.50;;;20.17;48.03
62617;BME280;62539;51.190;6.808;2023-04-28T03:37:45;100867.44;;;20.17;47.68
62617;BME280;62539;51.190;6.808;2023-04-28T03:40:11;100862.13;;;20.19;47.61
62617;BME280;62539;51.190;6.808;2023-04-28T03:42:37;100861.13;;;20.21;47.71
62617;BME280;62539;51.190;6.808;2023-04-28T03:45:03;100852.25;;;20.24;47.79
62617;BME280;62539;51.190;6.808;2023-04-28T03:47:28;100847.69;;;20.27;47.63
62617;BME280;62539;51.190;6.808;2023-04-28T03:49:54;100837.00;;;20.32;47.52
62617;BME280;62539;51.190;6.808;2023-04-28T03:52:19;100836.91;;;20.34;47.43
62617;BME280;62539;51.190;6.808;2023-04-28T03:54:44;100830.69;;;20.36;47.35
62617;BME280;62539;51.190;6.808;2023-04-28T03:57:10;100817.44;;;20.38;47.64
62617;BME280;62539;51.190;6.808;2023-04-28T03:59:36;100820.84;;;20.40;47.64
62617;BME280;62539;51.190;6.808;2023-04-28T04:02:02;100805.91;;;20.40;47.60
62617;BME280;62539;51.190;6.808;2023-04-28T04:04:28;100808.47;;;20.42;47.62
62617;BME280;62539;51.190;6.808;2023-04-28T04:06:53;100810.19;;;20.43;47.51
62617;BME280;62539;51.190;6.808;2023-04-28T04:09:18;100806.63;;;20.44;47.37
62617;BME280;62539;51.190;6.808;2023-04-28T04:11:44;100797.81;;;20.45;47.37
62617;BME280;62539;51.190;6.808;2023-04-28T04:14:10;100799.53;;;20.46;47.42
62617;BME280;62539;51.190;6.808;2023-04-28T04:16:35;100795.13;;;20.47;47.42
62617;BME280;62539;51.190;6.808;2023-04-28T04:19:01;100788.06;;;20.47;47.55
62617;BME280;62539;51.190;6.808;2023-04-28T04:21:26;100797.66;;;20.48;47.55
62617;BME280;62539;51.190;6.808;2023-04-28T04:23:52;100804.66;;;20.49;47.89
62617;BME280;62539;51.190;6.808;2023-04-28T04:26:18;100790.56;;;20.50;47.58
62617;BME280;62539;51.190;6.808;2023-04-28T04:28:43;100803.69;;;20.52;47.53
62617;BME280;62539;51.190;6.808;2023-04-28T04:31:09;100803.59;;;20.53;47.53
62617;BME280;62539;51.190;6.808;2023-04-28T04:33:34;100814.16;;;20.53;47.51
62617;BME280;62539;51.190;6.808;2023-04-28T04:36:02;100810.59;;;20.54;47.06
62617;BME280;62539;51.190;6.808;2023-04-28T04:38:28;100814.09;;;20.55;47.50
62617;BME280;62539;51.190;6.808;2023-04-28T04:40:54;100809.66;;;20.55;47.50
62617;BME280;62539;51.190;6.808;2023-04-28T04:43:20;100807.81;;;20.58;47.35
62617;BME280;62539;51.190;6.808;2023-04-28T04:45:46;100792.00;;;20.58;47.53
62617;BME280;62539;51.190;6.808;2023-04-28T04:48:11;100788.47;;;20.59;47.41
62617;BME280;62539;51.190;6.808;2023-04-28T04:50:37;100776.19;;;20.58;47.66
62617;BME280;62539;51.190;6.808;2023-04-28T04:53:02;100785.81;;;20.59;47.59
62617;BME280;62539;51.190;6.808;2023-04-28T04:55:27;100781.47;;;20.58;47.72
62617;BME280;62539;51.190;6.808;2023-04-28T04:57:53;100796.38;;;20.59;47.77
62617;BME280;62539;51.190;6.808;2023-04-28T05:00:19;100791.03;;;20.60;47.61
62617;BME280;62539;51.190;6.808;2023-04-28T05:02:44;100802.41;;;20.61;47.62
62617;BME280;62539;51.190;6.808;2023-04-28T05:05:10;100798.88;;;20.62;47.54
62617;BME280;62539;51.190;6.808;2023-04-28T05:07:35;100810.28;;;20.62;47.68
62617;BME280;62539;51.190;6.808;2023-04-28T05:10:01;100812.00;;;20.63;47.85
62617;BME280;62539;51.190;6.808;2023-04-28T05:12:27;100811.00;;;20.66;47.65
62617;BME280;62539;51.190;6.808;2023-04-28T05:14:52;100810.16;;;20.65;47.57
62617;BME280;62539;51.190;6.808;2023-04-28T05:17:17;100796.09;;;20.65;47.29
62617;BME280;62539;51.190;6.808;2023-04-28T05:19:43;100788.19;;;20.65;47.21
62617;BME280;62539;51.190;6.808;2023-04-28T05:22:09;100789.06;;;20.65;47.31
62617;BME280;62539;51.190;6.808;2023-04-28T05:24:35;100791.63;;;20.67;47.35
62617;BME280;62539;51.190;6.808;2023-04-28T05:27:01;100798.59;;;20.68;46.92
62617;BME280;62539;51.190;6.808;2023-04-28T05:29:26;100800.31;;;20.69;47.27
62617;BME280;62539;51.190;6.808;2023-04-28T05:31:51;100798.56;;;20.69;47.21
62617;BME280;62539;51.190;6.808;2023-04-28T05:34:17;100798.47;;;20.71;47.81
62617;BME280;62539;51.190;6.808;2023-04-28T05:36:43;100791.34;;;20.73;47.85
62617;BME280;62539;51.190;6.808;2023-04-28T05:39:08;100799.22;;;20.75;47.42
62617;BME280;62539;51.190;6.808;2023-04-28T05:41:34;100790.44;;;20.74;47.75
62617;BME280;62539;51.190;6.808;2023-04-28T05:44:00;100778.97;;;20.75;47.75
62617;BME280;62539;51.190;6.808;2023-04-28T05:46:26;100780.66;;;20.76;47.85
62617;BME280;62539;51.190;6.808;2023-04-28T05:48:51;100779.84;;;20.76;47.50
62617;BME280;62539;51.190;6.808;2023-04-28T05:51:17;100779.75;;;20.77;47.77
62617;BME280;62539;51.190;6.808;2023-04-28T05:53:42;100774.47;;;20.77;47.60
62617;BME280;62539;51.190;6.808;2023-04-28T05:56:07;100770.03;;;20.79;47.55
62617;BME280;62539;51.190;6.808;2023-04-28T05:58:33;100770.03;;;20.79;47.94
62617;BME280;62539;51.190;6.808;2023-04-28T06:00:58;100773.44;;;20.81;47.84
62617;BME280;62539;51.190;6.808;2023-04-28T06:03:24;100761.19;;;20.80;47.91
62617;BME280;62539;51.190;6.808;2023-04-28T06:05:49;100769.03;;;20.82;47.88
62617;BME280;62539;51.190;6.808;2023-04-28T06:08:15;100765.50;;;20.83;47.93
62617;BME280;62539;51.190;6.808;2023-04-28T06:10:41;100756.56;;;20.85;47.75
62617;BME280;62539;51.190;6.808;2023-04-28T06:13:06;100753.78;;;20.89;48.17
62617;BME280;62539;51.190;6.808;2023-04-28T06:15:32;100749.31;;;20.91;47.82
62617;BME280;62539;51.190;6.808;2023-04-28T06:17:57;100755.31;;;20.94;48.24
62617;BME280;62539;51.190;6.808;2023-04-28T06:20:23;100750.75;;;20.98;48.02
62617;BME280;62539;51.190;6.808;2023-04-28T06:22:49;100754.16;;;21.00;47.96
62617;BME280;62539;51.190;6.808;2023-04-28T06:25:15;100752.31;;;21.02;47.84
62617;BME280;62539;51.190;6.808;2023-04-28T06:27:41;100747.84;;;21.04;48.15
62617;BME280;62539;51.190;6.808;2023-04-28T06:30:07;100752.13;;;21.07;48.00
62617;BME280;62539;51.190;6.808;2023-04-28T06:32:32;100762.59;;;21.08;48.32
62617;BME280;62539;51.190;6.808;2023-04-28T06:34:58;100764.44;;;21.06;47.70
62617;BME280;62539;51.190;6.808;2023-04-28T06:37:23;100765.22;;;21.08;47.59
62617;BME280;62539;51.190;6.808;2023-04-28T06:39:48;100770.50;;;21.08;47.80
62617;BME280;62539;51.190;6.808;2023-04-28T06:42:14;100768.75;;;21.09;47.94
62617;BME280;62539;51.190;6.808;2023-04-28T06:44:42;100762.53;;;21.10;48.08
62617;BME280;62539;51.190;6.808;2023-04-28T06:47:08;100761.66;;;21.09;47.95
62617;BME280;62539;51.190;6.808;2023-04-28T06:49:34;100758.09;;;21.10;48.18
62617;BME280;62539;51.190;6.808;2023-04-28T06:51:59;100756.34;;;21.11;48.01
62617;BME280;62539;51.190;6.808;2023-04-28T06:54:25;100756.25;;;21.12;48.28
62617;BME280;62539;51.190;6.808;2023-04-28T06:56:50;100752.69;;;21.13;48.25
62617;BME280;62539;51.190;6.808;2023-04-28T06:59:16;100759.81;;;21.11;47.99
62617;BME280;62539;51.190;6.808;2023-04-28T07:01:42;100765.09;;;21.11;48.02
62617;BME280;62539;51.190;6.808;2023-04-28T07:04:07;100764.25;;;21.11;48.05
62617;BME280;62539;51.190;6.808;2023-04-28T07:06:32;100769.44;;;21.12;48.01
62617;BME280;62539;51.190;6.808;2023-04-28T07:08:58;100765.97;;;21.12;48.00
62617;BME280;62539;51.190;6.808;2023-04-28T07:11:23;100772.06;;;21.12;48.19
62617;BME280;62539;51.190;6.808;2023-04-28T07:13:49;100775.50;;;21.14;48.30
62617;BME280;62539;51.190;6.808;2023-04-28T07:16:16;100776.28;;;21.17;48.12
62617;BME280;62539;51.190;6.808;2023-04-28T07:18:43;100772.72;;;21.18;48.20
62617;BME280;62539;51.190;6.808;2023-04-28T07:21:08;100770.88;;;21.20;48.06
62617;BME280;62539;51.190;6.808;2023-04-28T07:23:34;100764.66;;;21.21;48.39
62617;BME280;62539;51.190;6.808;2023-04-28T07:25:59;100765.47;;;21.23;48.03
62617;BME280;62539;51.190;6.808;2023-04-28T07:28:25;100773.38;;;21.23;48.33
62617;BME280;62539;51.190;6.808;2023-04-28T07:30:50;100770.59;;;21.26;48.16
62617;BME280;62539;51.190;6.808;2023-04-28T07:33:16;100768.88;;;21.25;48.37
62617;BME280;62539;51.190;6.808;2023-04-28T07:35:41;100769.66;;;21.27;48.14
62617;BME280;62539;51.190;6.808;2023-04-28T07:38:07;100772.22;;;21.28;48.28
62617;BME280;62539;51.190;6.808;2023-04-28T07:40:32;100777.44;;;21.30;48.39
62617;BME280;62539;51.190;6.808;2023-04-28T07:42:58;100774.81;;;21.30;48.26
62617;BME280;62539;51.190;6.808;2023-04-28T07:45:23;100778.38;;;21.29;47.93
62617;BME280;62539;51.190;6.808;2023-04-28T07:47:49;100780.06;;;21.30;48.16
62617;BME280;62539;51.190;6.808;2023-04-28T07:50:14;100778.38;;;21.29;48.33
62617;BME280;62539;51.190;6.808;2023-04-28T07:52:40;100775.72;;;21.29;48.07
62617;BME280;62539;51.190;6.808;2023-04-28T07:55:06;100777.34;;;21.32;48.65
62617;BME280;62539;51.190;6.808;2023-04-28T07:57:32;100777.28;;;21.33;48.05
62617;BME280;62539;51.190;6.808;2023-04-28T07:59:57;100765.81;;;21.34;47.94
62617;BME280;62539;51.190;6.808;2023-04-28T08:02:23;100765.81;;;21.34;48.18
62617;BME280;62539;51.190;6.808;2023-04-28T08:04:48;100768.38;;;21.36;48.08
62617;BME280;62539;51.190;6.808;2023-04-28T08:07:13;100760.41;;;21.37;48.34
62617;BME280;62539;51.190;6.808;2023-04-28T08:09:39;100761.22;;;21.38;48.23
62617;BME280;62539;51.190;6.808;2023-04-28T08:12:06;100756.69;;;21.41;48.04
62617;BME280;62539;51.190;6.808;2023-04-28T08:14:32;100763.69;;;21.42;48.28
62617;BME280;62539;51.190;6.808;2023-04-28T08:16:57;100756.53;;;21.44;48.07
62617;BME280;62539;51.190;6.808;2023-04-28T08:19:23;100763.53;;;21.46;47.89
62617;BME280;62539;51.190;6.808;2023-04-28T08:21:48;100760.81;;;21.47;48.08
62617;BME280;62539;51.190;6.808;2023-04-28T08:24:14;100760.75;;;21.49;48.13
62617;BME280;62539;51.190;6.808;2023-04-28T08:26:39;100758.94;;;21.49;48.09
62617;BME280;62539;51.190;6.808;2023-04-28T08:29:05;100753.63;;;21.51;48.34
62617;BME280;62539;51.190;6.808;2023-04-28T08:31:30;100764.03;;;21.54;48.30
62617;BME280;62539;51.190;6.808;2023-04-28T08:33:56;100755.09;;;21.56;48.13
62617;BME280;62539;51.190;6.808;2023-04-28T08:36:21;100751.63;;;21.56;48.01
62617;BME280;62539;51.190;6.808;2023-04-28T08:38:49;100754.25;;;21.56;48.06
62617;BME280;62539;51.190;6.808;2023-04-28T08:41:15;100760.38;;;21.56;48.04
62617;BME280;62539;51.190;6.808;2023-04-28T08:43:41;100766.53;;;21.57;48.18
62617;BME280;62539;51.190;6.808;2023-04-28T08:46:08;100762.94;;;21.58;48.07
62617;BME280;62539;51.190;6.808;2023-04-28T08:48:43;100769.16;;;21.57;48.31
62617;BME280;62539;51.190;6.808;2023-04-28T08:51:24;100774.44;;;21.57;48.37
62617;BME280;62539;51.190;6.808;2023-04-28T08:53:58;100777.13;;;21.55;48.30
62617;BME280;62539;51.190;6.808;2023-04-28T08:56:31;100781.56;;;21.55;48.42
62617;BME280;62539;51.190;6.808;2023-04-28T08:59:03;100781.56;;;21.55;48.55
62617;BME280;62539;51.190;6.808;2023-04-28T09:01:29;100783.34;;;21.54;48.45
62617;BME280;62539;51.190;6.808;2023-04-28T09:03:56;100781.63;;;21.53;48.23
62617;BME280;62539;51.190;6.808;2023-04-28T09:06:24;100787.78;;;21.54;48.38
62617;BME280;62539;51.190;6.808;2023-04-28T09:08:50;100784.22;;;21.55;48.31
62617;BME280;62539;51.190;6.808;2023-04-28T09:11:15;100774.50;;;21.55;48.65
62617;BME280;62539;51.190;6.808;2023-04-28T09:13:41;100771.78;;;21.57;48.32
62617;BME280;62539;51.190;6.808;2023-04-28T09:16:06;100771.66;;;21.60;48.66
62617;BME280;62539;51.190;6.808;2023-04-28T09:18:32;100767.09;;;21.64;48.38
62617;BME280;62539;51.190;6.808;2023-04-28T09:21:05;100764.41;;;21.65;48.34
62617;BME280;62539;51.190;6.808;2023-04-28T09:23:32;100769.59;;;21.67;48.50
62617;BME280;62539;51.190;6.808;2023-04-28T09:26:05;100764.25;;;21.68;48.25
62617;BME280;62539;51.190;6.808;2023-04-28T09:28:32;100765.03;;;21.70;48.50
62617;BME280;62539;51.190;6.808;2023-04-28T09:30:59;100753.53;;;21.71;48.40
62617;BME280;62539;51.190;6.808;2023-04-28T09:33:25;100762.25;;;21.73;48.40
62617;BME280;62539;51.190;6.808;2023-04-28T09:35:51;100754.25;;;21.75;48.02
62617;BME280;62539;51.190;6.808;2023-04-28T09:38:18;100756.81;;;21.77;48.39
62617;BME280;62539;51.190;6.808;2023-04-28T09:40:59;100757.59;;;21.79;48.29
62617;BME280;62539;51.190;6.808;2023-04-28T09:43:31;100758.53;;;21.78;48.08
62617;BME280;62539;51.190;6.808;2023-04-28T09:46:01;100757.59;;;21.79;48.14
62617;BME280;62539;51.190;6.808;2023-04-28T09:48:29;100760.25;;;21.79;48.46
62617;BME280;62539;51.190;6.808;2023-04-28T09:51:05;100759.38;;;21.78;48.18
62617;BME280;62539;51.190;6.808;2023-04-28T09:53:32;100761.19;;;21.78;48.33
62617;BME280;62539;51.190;6.808;2023-04-28T09:56:01;100757.66;;;21.77;48.36
62617;BME280;62539;51.190;6.808;2023-04-28T09:58:29;100748.91;;;21.77;48.50
62617;BME280;62539;51.190;6.808;2023-04-28T10:00:57;100759.38;;;21.78;48.15
62617;BME280;62539;51.190;6.808;2023-04-28T10:03:28;100750.63;;;21.78;48.19
62617;BME280;62539;51.190;6.808;2023-04-28T10:05:55;100761.31;;;21.75;48.23
62617;BME280;62539;51.190;6.808;2023-04-28T10:08:23;100763.19;;;21.72;48.21
62617;BME280;62539;51.190;6.808;2023-04-28T10:10:51;100755.25;;;21.72;48.13
62617;BME280;62539;51.190;6.808;2023-04-28T10:13:21;100760.53;;;21.72;48.35
62617;BME280;62539;51.190;6.808;2023-04-28T10:15:48;100762.25;;;21.73;48.38
62617;BME280;62539;51.190;6.808;2023-04-28T10:18:15;100754.38;;;21.72;48.67
62617;BME280;62539;51.190;6.808;2023-04-28T10:20:46;100756.97;;;21.73;48.32
62617;BME280;62539;51.190;6.808;2023-04-28T10:23:58;100755.25;;;21.72;48.49
62617;BME280;62539;51.190;6.808;2023-04-28T10:27:07;100757.91;;;21.72;48.39
62617;BME280;62539;51.190;6.808;2023-04-28T10:29:34;100757.81;;;21.74;48.69
62617;BME280;62539;51.190;6.808;2023-04-28T10:34:50;100762.25;;;21.73;48.45
62617;BME280;62539;51.190;6.808;2023-04-28T10:37:16;100759.66;;;21.72;49.17
62617;BME280;62539;51.190;6.808;2023-04-28T10:42:55;100761.25;;;21.57;49.72
62617;BME280;62539;51.190;6.808;2023-04-28T10:48:18;100753.97;;;21.62;49.28
62617;BME280;62539;51.190;6.808;2023-04-28T10:58:41;100753.47;;;21.73;49.15
62617;BME280;62539;51.190;6.808;2023-04-28T11:03:53;100743.69;;;21.75;49.14
62617;BME280;62539;51.190;6.808;2023-04-28T11:09:00;100746.25;;;21.77;48.93
62617;BME280;62539;51.190;6.808;2023-04-28T11:11:31;100749.69;;;21.79;49.04
62617;BME280;62539;51.190;6.808;2023-04-28T11:19:27;100738.09;;;21.81;48.97
62617;BME280;62539;51.190;6.808;2023-04-28T11:21:54;100737.16;;;21.82;49.04
62617;BME280;62539;51.190;6.808;2023-04-28T11:24:25;100738.03;;;21.83;49.39
62617;BME280;62539;51.190;6.808;2023-04-28T11:26:56;100730.97;;;21.83;49.47
62617;BME280;62539;51.190;6.808;2023-04-28T11:29:33;100727.22;;;21.87;49.19
62617;BME280;62539;51.190;6.808;2023-04-28T11:32:03;100732.38;;;21.91;49.29
62617;BME280;62539;51.190;6.808;2023-04-28T11:34:30;100732.16;;;21.95;49.20
62617;BME280;62539;51.190;6.808;2023-04-28T11:36:56;100728.44;;;21.99;49.24
62617;BME280;62539;51.190;6.808;2023-04-28T11:39:29;100728.97;;;22.06;48.84
62617;BME280;62539;51.190;6.808;2023-04-28T11:41:57;100720.56;;;22.15;48.75
62617;BME280;62539;51.190;6.808;2023-04-28T11:44:28;100726.09;;;22.28;48.68
62617;BME280;62539;51.190;6.808;2023-04-28T11:46:57;100713.41;;;22.35;48.43
62617;BME280;62539;51.190;6.808;2023-04-28T11:49:29;100723.91;;;22.37;48.30
62617;BME280;62539;51.190;6.808;2023-04-28T11:51:57;100719.47;;;22.37;48.58
62617;BME280;62539;51.190;6.808;2023-04-28T11:54:28;100726.31;;;22.41;48.53
62617;BME280;62539;51.190;6.808;2023-04-28T11:56:55;100723.59;;;22.43;48.44
62617;BME280;62539;51.190;6.808;2023-04-28T11:59:27;100719.13;;;22.45;48.87
62617;BME280;62539;51.190;6.808;2023-04-28T12:01:56;100726.91;;;22.48;49.12
62617;BME280;62539;51.190;6.808;2023-04-28T12:04:39;100720.50;;;22.52;48.98
62617;BME280;62539;51.190;6.808;2023-04-28T12:07:08;100721.91;;;22.59;48.93
62617;BME280;62539;51.190;6.808;2023-04-28T12:09:43;100724.13;;;22.67;48.60
62617;BME280;62539;51.190;6.808;2023-04-28T12:12:14;100722.19;;;22.71;48.39
62617;BME280;62539;51.190;6.808;2023-04-28T12:14:56;100720.31;;;22.73;48.85
62617;BME280;62539;51.190;6.808;2023-04-28T12:17:35;100719.28;;;22.75;48.58
62617;BME280;62539;51.190;6.808;2023-04-28T12:20:08;100712.66;;;22.84;48.45
62617;BME280;62539;51.190;6.808;2023-04-28T12:22:46;100708.06;;;22.88;48.29
62617;BME280;62539;51.190;6.808;2023-04-28T12:25:14;100713.22;;;23.07;48.33
62617;BME280;62539;51.190;6.808;2023-04-28T12:30:31;100701.97;;;23.52;47.53
62617;BME280;62539;51.190;6.808;2023-04-28T12:32:58;100707.75;;;23.74;46.91
62617;BME280;62539;51.190;6.808;2023-04-28T12:35:24;100710.09;;;23.79;46.72
62617;BME280;62539;51.190;6.808;2023-04-28T12:37:51;100700.31;;;23.96;46.68
62617;BME280;62539;51.190;6.808;2023-04-28T12:40:18;100704.69;;;23.97;46.74
62617;BME280;62539;51.190;6.808;2023-04-28T12:42:43;100700.41;;;23.94;46.97
62617;BME280;62539;51.190;6.808;2023-04-28T12:45:09;100707.00;;;23.87;47.15
62617;BME280;62539;51.190;6.808;2023-04-28T12:47:35;100701.03;;;23.83;47.05
62617;BME280;62539;51.190;6.808;2023-04-28T12:50:03;100706.53;;;23.80;46.98
62617;BME280;62539;51.190;6.808;2023-04-28T12:52:28;100700.28;;;23.81;47.31
62617;BME280;62539;51.190;6.808;2023-04-28T12:54:57;100698.31;;;23.85;46.77
62617;BME280;62539;51.190;6.808;2023-04-28T12:57:22;100688.84;;;23.81;47.27
62617;BME280;62539;51.190;6.808;2023-04-28T12:59:47;100697.44;;;23.84;46.92
62617;BME280;62539;51.190;6.808;2023-04-28T13:02:13;100699.63;;;23.92;46.56
62617;BME280;62539;51.190;6.808;2023-04-28T13:04:40;100690.25;;;24.02;46.29
62617;BME280;62539;51.190;6.808;2023-04-28T13:07:10;100689.03;;;24.08;46.32
62617;BME280;62539;51.190;6.808;2023-04-28T13:09:37;100690.00;;;24.21;46.06
62617;BME280;62539;51.190;6.808;2023-04-28T13:12:02;100671.19;;;24.55;45.66
62617;BME280;62539;51.190;6.808;2023-04-28T13:14:28;100677.25;;;24.72;45.53
62617;BME280;62539;51.190;6.808;2023-04-28T13:16:54;100669.34;;;25.14;44.69
62617;BME280;62539;51.190;6.808;2023-04-28T13:19:21;100664.22;;;25.25;44.35